UAL15 KIAD-KEWR
Flight info
| Callsign | UAL15 |
|---|---|
| Flight time | 0h 45m |
| Altitude | 21000 |
| Route | JCOBY4 SWANN PHLBO4 |
| Aircraft | B763/H-SDE3FGHIM3RWXY/LB1 |
Departure
| Time | 2026-05-04 18:08 |
|---|---|
| Airport | Washington Dulles International Airport (KIAD) |
Arrival
| Time | 2026-05-04 18:54 |
|---|---|
| Airport | Newark Liberty International Airport (KEWR) |
| Time | Latitude | Longitude | Altitude | Speed | Heading |
|---|---|---|---|---|---|
| 2026-05-04 17:40 | 38.94599 | -77.45493 | 295 ft | 0 kts | 181° |
| 2026-05-04 17:57 | 38.94601 | -77.45493 | 295 ft | 1 kts | 181° |
| 2026-05-04 17:58 | 38.94616 | -77.45493 | 295 ft | 2 kts | 181° |
| 2026-05-04 17:58 | 38.94631 | -77.45493 | 295 ft | 2 kts | 189° |
| 2026-05-04 17:58 | 38.94644 | -77.45486 | 295 ft | 2 kts | 212° |
| 2026-05-04 17:58 | 38.94657 | -77.45474 | 295 ft | 2 kts | 230° |
| 2026-05-04 17:59 | 38.94665 | -77.45458 | 295 ft | 2 kts | 249° |
| 2026-05-04 17:59 | 38.94669 | -77.45441 | 295 ft | 1 kts | 267° |
| 2026-05-04 17:59 | 38.94669 | -77.45430 | 295 ft | 0 kts | 271° |
| 2026-05-04 18:02 | 38.94669 | -77.45440 | 295 ft | 6 kts | 271° |
| 2026-05-04 18:03 | 38.94670 | -77.45533 | 294 ft | 11 kts | 271° |
| 2026-05-04 18:03 | 38.94643 | -77.45601 | 294 ft | 6 kts | 207° |
| 2026-05-04 18:03 | 38.94590 | -77.45609 | 294 ft | 9 kts | 181° |
| 2026-05-04 18:03 | 38.94521 | -77.45611 | 295 ft | 11 kts | 181° |
| 2026-05-04 18:04 | 38.94435 | -77.45612 | 295 ft | 13 kts | 181° |
| 2026-05-04 18:04 | 38.94328 | -77.45613 | 295 ft | 16 kts | 181° |
| 2026-05-04 18:04 | 38.94068 | -77.45618 | 295 ft | 20 kts | 180° |
| 2026-05-04 18:05 | 38.93928 | -77.45618 | 294 ft | 19 kts | 180° |
| 2026-05-04 18:05 | 38.93795 | -77.45622 | 293 ft | 18 kts | 181° |
| 2026-05-04 18:05 | 38.93684 | -77.45577 | 292 ft | 16 kts | 133° |
| 2026-05-04 18:05 | 38.93601 | -77.45496 | 290 ft | 13 kts | 179° |
| 2026-05-04 18:06 | 38.93477 | -77.45551 | 289 ft | 0 kts | 201° |
| 2026-05-04 18:07 | 38.93445 | -77.45567 | 288 ft | 10 kts | 201° |
| 2026-05-04 18:07 | 38.93381 | -77.45603 | 287 ft | 6 kts | 229° |
| 2026-05-04 18:07 | 38.93384 | -77.45664 | 287 ft | 14 kts | 287° |
| 2026-05-04 18:08 | 38.93500 | -77.46063 | 290 ft | 81 kts | 290° |
| 2026-05-04 18:08 | 38.93779 | -77.47010 | 298 ft | 144 kts | 291° |
| 2026-05-04 18:08 | 38.94222 | -77.48422 | 476 ft | 189 kts | 293° |
| 2026-05-04 18:08 | 38.94853 | -77.50040 | 1006 ft | 221 kts | 302° |
| 2026-05-04 18:09 | 38.97263 | -77.53213 | 1642 ft | 247 kts | 331° |
| 2026-05-04 18:09 | 39.00599 | -77.53594 | 2512 ft | 254 kts | 0° |
| 2026-05-04 18:10 | 39.02410 | -77.53523 | 3008 ft | 268 kts | 360° |
| 2026-05-04 18:10 | 39.04306 | -77.53449 | 3469 ft | 275 kts | 0° |
| 2026-05-04 18:10 | 39.06222 | -77.53368 | 3917 ft | 275 kts | 0° |
| 2026-05-04 18:10 | 39.08126 | -77.53141 | 4378 ft | 279 kts | 15° |
| 2026-05-04 18:11 | 39.09825 | -77.51945 | 4903 ft | 286 kts | 44° |
| 2026-05-04 18:11 | 39.10858 | -77.50043 | 5396 ft | 290 kts | 70° |
| 2026-05-04 18:11 | 39.11147 | -77.48566 | 5750 ft | 295 kts | 87° |
| 2026-05-04 18:11 | 39.11156 | -77.45940 | 6575 ft | 295 kts | 88° |
| 2026-05-04 18:12 | 39.11438 | -77.43523 | 7231 ft | 300 kts | 75° |
| 2026-05-04 18:12 | 39.12024 | -77.41148 | 7954 ft | 303 kts | 67° |
| 2026-05-04 18:12 | 39.12804 | -77.38714 | 8700 ft | 306 kts | 63° |
| 2026-05-04 18:12 | 39.13725 | -77.36214 | 9466 ft | 310 kts | 60° |
| 2026-05-04 18:13 | 39.14704 | -77.33705 | 10248 ft | 313 kts | 59° |
| 2026-05-04 18:13 | 39.15526 | -77.31019 | 10506 ft | 341 kts | 76° |
| 2026-05-04 18:13 | 39.15225 | -77.24689 | 10757 ft | 396 kts | 108° |
| 2026-05-04 18:14 | 39.14468 | -77.21450 | 11523 ft | 401 kts | 104° |
| 2026-05-04 18:14 | 39.13826 | -77.17979 | 12302 ft | 407 kts | 104° |
| 2026-05-04 18:14 | 39.13202 | -77.14399 | 13142 ft | 411 kts | 102° |
| 2026-05-04 18:15 | 39.12025 | -77.07150 | 14779 ft | 418 kts | 102° |
| 2026-05-04 18:15 | 39.10866 | -76.99753 | 16277 ft | 425 kts | 97° |
| 2026-05-04 18:15 | 39.10680 | -76.96023 | 16936 ft | 428 kts | 86° |
| 2026-05-04 18:16 | 39.10844 | -76.92190 | 17666 ft | 431 kts | 86° |
| 2026-05-04 18:16 | 39.10952 | -76.88339 | 18408 ft | 434 kts | 86° |
| 2026-05-04 18:16 | 39.11066 | -76.84433 | 19030 ft | 440 kts | 86° |
| 2026-05-04 18:17 | 39.11267 | -76.76514 | 20389 ft | 448 kts | 86° |
| 2026-05-04 18:17 | 39.11368 | -76.72452 | 20910 ft | 455 kts | 86° |
| 2026-05-04 18:17 | 39.11569 | -76.64111 | 21001 ft | 484 kts | 86° |
| 2026-05-04 18:18 | 39.11669 | -76.59740 | 20990 ft | 489 kts | 86° |
| 2026-05-04 18:18 | 39.11766 | -76.55438 | 20987 ft | 485 kts | 86° |
| 2026-05-04 18:18 | 39.11974 | -76.51128 | 20986 ft | 482 kts | 80° |
| 2026-05-04 18:18 | 39.12484 | -76.46853 | 20995 ft | 483 kts | 78° |
| 2026-05-04 18:19 | 39.13430 | -76.38309 | 20991 ft | 482 kts | 79° |
| 2026-05-04 18:19 | 39.13902 | -76.34060 | 20986 ft | 483 kts | 79° |
| 2026-05-04 18:19 | 39.14500 | -76.29848 | 20978 ft | 470 kts | 72° |
| 2026-05-04 18:20 | 39.15487 | -76.25944 | 20979 ft | 448 kts | 64° |
| 2026-05-04 18:20 | 39.16863 | -76.22438 | 20986 ft | 430 kts | 53° |
| 2026-05-04 18:20 | 39.18660 | -76.19373 | 21006 ft | 430 kts | 43° |
| 2026-05-04 18:20 | 39.20763 | -76.16651 | 21004 ft | 436 kts | 40° |
| 2026-05-04 18:21 | 39.22960 | -76.13924 | 20990 ft | 435 kts | 39° |
| 2026-05-04 18:21 | 39.25173 | -76.11256 | 20993 ft | 431 kts | 39° |
| 2026-05-04 18:21 | 39.27349 | -76.08660 | 20990 ft | 430 kts | 38° |
| 2026-05-04 18:21 | 39.29552 | -76.06054 | 20990 ft | 432 kts | 38° |
| 2026-05-04 18:22 | 39.31778 | -76.03426 | 20987 ft | 433 kts | 38° |
| 2026-05-04 18:22 | 39.34012 | -76.00791 | 20988 ft | 432 kts | 38° |
| 2026-05-04 18:22 | 39.36230 | -75.98177 | 20986 ft | 431 kts | 38° |
| 2026-05-04 18:22 | 39.38441 | -75.95568 | 20981 ft | 432 kts | 38° |
| 2026-05-04 18:23 | 39.40646 | -75.92968 | 20988 ft | 433 kts | 38° |
| 2026-05-04 18:23 | 39.42857 | -75.90355 | 20986 ft | 432 kts | 38° |
| 2026-05-04 18:23 | 39.45091 | -75.87716 | 20984 ft | 433 kts | 38° |
| 2026-05-04 18:23 | 39.47287 | -75.85119 | 20979 ft | 433 kts | 38° |
| 2026-05-04 18:24 | 39.49517 | -75.82476 | 20982 ft | 433 kts | 38° |
| 2026-05-04 18:24 | 39.51740 | -75.79844 | 20982 ft | 433 kts | 38° |
| 2026-05-04 18:24 | 39.53950 | -75.77221 | 20989 ft | 433 kts | 38° |
| 2026-05-04 18:24 | 39.56174 | -75.74580 | 20995 ft | 433 kts | 38° |
| 2026-05-04 18:25 | 39.58379 | -75.71957 | 20966 ft | 424 kts | 38° |
| 2026-05-04 18:25 | 39.60511 | -75.69418 | 20974 ft | 410 kts | 38° |
| 2026-05-04 18:25 | 39.62588 | -75.66949 | 20731 ft | 411 kts | 38° |
| 2026-05-04 18:25 | 39.64712 | -75.64423 | 20445 ft | 414 kts | 38° |
| 2026-05-04 18:26 | 39.66808 | -75.61924 | 20138 ft | 411 kts | 38° |
| 2026-05-04 18:26 | 39.68911 | -75.59407 | 19611 ft | 412 kts | 38° |
| 2026-05-04 18:26 | 39.71016 | -75.56873 | 19165 ft | 407 kts | 38° |
| 2026-05-04 18:26 | 39.73069 | -75.54401 | 18716 ft | 402 kts | 38° |
| 2026-05-04 18:27 | 39.75108 | -75.51945 | 18277 ft | 398 kts | 38° |
| 2026-05-04 18:27 | 39.77115 | -75.49525 | 17870 ft | 397 kts | 38° |
| 2026-05-04 18:27 | 39.79153 | -75.47066 | 17458 ft | 397 kts | 38° |
| 2026-05-04 18:27 | 39.81166 | -75.44636 | 17039 ft | 396 kts | 39° |
| 2026-05-04 18:28 | 39.83179 | -75.42201 | 16621 ft | 394 kts | 38° |
| 2026-05-04 18:28 | 39.85188 | -75.39771 | 16197 ft | 392 kts | 38° |
| 2026-05-04 18:28 | 39.87181 | -75.37357 | 15770 ft | 390 kts | 39° |
| 2026-05-04 18:28 | 39.89148 | -75.34975 | 15346 ft | 388 kts | 39° |
| 2026-05-04 18:29 | 39.91123 | -75.32578 | 14914 ft | 386 kts | 39° |
| 2026-05-04 18:29 | 39.93075 | -75.30210 | 14493 ft | 384 kts | 39° |
| 2026-05-04 18:29 | 39.95032 | -75.27834 | 14075 ft | 383 kts | 39° |
| 2026-05-04 18:29 | 39.96963 | -75.25485 | 13663 ft | 381 kts | 39° |
| 2026-05-04 18:30 | 40.00811 | -75.20805 | 13003 ft | 376 kts | 39° |
| 2026-05-04 18:30 | 40.02699 | -75.18500 | 12685 ft | 375 kts | 39° |
| 2026-05-04 18:30 | 40.04613 | -75.16170 | 12363 ft | 374 kts | 39° |
| 2026-05-04 18:31 | 40.06499 | -75.13861 | 12046 ft | 372 kts | 39° |
| 2026-05-04 18:31 | 40.08389 | -75.11556 | 11720 ft | 371 kts | 39° |
| 2026-05-04 18:31 | 40.10274 | -75.09251 | 11400 ft | 369 kts | 39° |
| 2026-05-04 18:31 | 40.12144 | -75.06961 | 11082 ft | 367 kts | 39° |
| 2026-05-04 18:32 | 40.13996 | -75.04697 | 11010 ft | 359 kts | 39° |
| 2026-05-04 18:32 | 40.15816 | -75.02465 | 11019 ft | 363 kts | 39° |
| 2026-05-04 18:32 | 40.17679 | -75.00183 | 11015 ft | 368 kts | 39° |
| 2026-05-04 18:32 | 40.19558 | -74.97878 | 11012 ft | 368 kts | 39° |
| 2026-05-04 18:33 | 40.21395 | -74.95617 | 11013 ft | 366 kts | 39° |
| 2026-05-04 18:33 | 40.23258 | -74.93331 | 11011 ft | 366 kts | 40° |
| 2026-05-04 18:33 | 40.25132 | -74.91031 | 11008 ft | 366 kts | 40° |
| 2026-05-04 18:33 | 40.26888 | -74.88659 | 11009 ft | 368 kts | 44° |
| 2026-05-04 18:34 | 40.28637 | -74.86182 | 11002 ft | 367 kts | 43° |
| 2026-05-04 18:34 | 40.30380 | -74.83722 | 11003 ft | 368 kts | 44° |
| 2026-05-04 18:34 | 40.32116 | -74.81286 | 11007 ft | 367 kts | 43° |
| 2026-05-04 18:34 | 40.33866 | -74.78831 | 10999 ft | 368 kts | 44° |
| 2026-05-04 18:35 | 40.35597 | -74.76368 | 10995 ft | 367 kts | 43° |
| 2026-05-04 18:35 | 40.37343 | -74.73915 | 11004 ft | 368 kts | 44° |
| 2026-05-04 18:35 | 40.39070 | -74.71497 | 10994 ft | 368 kts | 43° |
| 2026-05-04 18:35 | 40.40834 | -74.69067 | 10994 ft | 363 kts | 37° |
| 2026-05-04 18:36 | 40.42902 | -74.67209 | 11010 ft | 358 kts | 20° |
| 2026-05-04 18:36 | 40.45240 | -74.66224 | 11013 ft | 352 kts | 7° |
| 2026-05-04 18:36 | 40.47681 | -74.65558 | 11003 ft | 352 kts | 8° |
| 2026-05-04 18:36 | 40.50072 | -74.64905 | 10982 ft | 351 kts | 7° |
| 2026-05-04 18:37 | 40.52484 | -74.64254 | 10992 ft | 351 kts | 7° |
| 2026-05-04 18:37 | 40.54876 | -74.63594 | 10995 ft | 352 kts | 7° |
| 2026-05-04 18:37 | 40.57278 | -74.62943 | 10987 ft | 349 kts | 7° |
| 2026-05-04 18:37 | 40.59567 | -74.62324 | 10915 ft | 327 kts | 6° |
| 2026-05-04 18:38 | 40.61738 | -74.61736 | 10815 ft | 308 kts | 6° |
| 2026-05-04 18:38 | 40.63797 | -74.61171 | 10458 ft | 296 kts | 6° |
| 2026-05-04 18:38 | 40.65780 | -74.60635 | 10118 ft | 286 kts | 6° |
| 2026-05-04 18:38 | 40.67706 | -74.60076 | 9781 ft | 279 kts | 6° |
| 2026-05-04 18:39 | 40.69588 | -74.59559 | 9452 ft | 278 kts | 6° |
| 2026-05-04 18:39 | 40.71506 | -74.59032 | 9139 ft | 278 kts | 7° |
| 2026-05-04 18:39 | 40.73397 | -74.58484 | 8818 ft | 280 kts | 9° |
| 2026-05-04 18:39 | 40.75262 | -74.57784 | 8504 ft | 281 kts | 13° |
| 2026-05-04 18:40 | 40.77110 | -74.56854 | 8203 ft | 282 kts | 20° |
| 2026-05-04 18:40 | 40.78861 | -74.55682 | 7964 ft | 282 kts | 26° |
| 2026-05-04 18:40 | 40.80541 | -74.54330 | 7731 ft | 283 kts | 27° |
| 2026-05-04 18:40 | 40.82232 | -74.52977 | 7490 ft | 284 kts | 27° |
| 2026-05-04 18:41 | 40.83914 | -74.51618 | 7237 ft | 285 kts | 28° |
| 2026-05-04 18:41 | 40.85640 | -74.50230 | 7017 ft | 292 kts | 28° |
| 2026-05-04 18:41 | 40.87399 | -74.48859 | 6776 ft | 295 kts | 27° |
| 2026-05-04 18:41 | 40.89159 | -74.47485 | 6532 ft | 293 kts | 27° |
| 2026-05-04 18:42 | 40.90921 | -74.46112 | 6284 ft | 291 kts | 27° |
| 2026-05-04 18:42 | 40.92614 | -74.44670 | 6045 ft | 291 kts | 33° |
| 2026-05-04 18:42 | 40.94227 | -74.43027 | 5803 ft | 292 kts | 38° |
| 2026-05-04 18:42 | 40.95715 | -74.41232 | 5562 ft | 292 kts | 43° |
| 2026-05-04 18:43 | 40.97098 | -74.39238 | 5322 ft | 292 kts | 49° |
| 2026-05-04 18:43 | 40.98337 | -74.37112 | 5083 ft | 292 kts | 53° |
| 2026-05-04 18:43 | 40.99394 | -74.34934 | 4848 ft | 291 kts | 59° |
| 2026-05-04 18:43 | 41.00361 | -74.32499 | 4592 ft | 290 kts | 65° |
| 2026-05-04 18:44 | 41.01134 | -74.30050 | 4352 ft | 291 kts | 70° |
| 2026-05-04 18:44 | 41.01568 | -74.28344 | 4183 ft | 290 kts | 74° |
| 2026-05-04 18:44 | 41.02192 | -74.24972 | 3848 ft | 279 kts | 81° |
| 2026-05-04 18:44 | 41.02448 | -74.22472 | 3582 ft | 269 kts | 87° |
| 2026-05-04 18:45 | 41.02517 | -74.20040 | 3325 ft | 259 kts | 93° |
| 2026-05-04 18:45 | 41.02406 | -74.17711 | 3117 ft | 252 kts | 99° |
| 2026-05-04 18:45 | 41.02120 | -74.15434 | 2971 ft | 246 kts | 105° |
| 2026-05-04 18:45 | 41.01674 | -74.13304 | 2961 ft | 232 kts | 113° |
| 2026-05-04 18:46 | 41.01082 | -74.11362 | 2964 ft | 223 kts | 119° |
| 2026-05-04 18:46 | 41.00411 | -74.09515 | 2996 ft | 225 kts | 120° |
| 2026-05-04 18:46 | 40.99710 | -74.07618 | 3055 ft | 232 kts | 120° |
| 2026-05-04 18:46 | 40.98997 | -74.05695 | 3010 ft | 236 kts | 120° |
| 2026-05-04 18:47 | 40.98047 | -74.04014 | 2944 ft | 218 kts | 148° |
| 2026-05-04 18:47 | 40.96770 | -74.03394 | 2935 ft | 184 kts | 188° |
| 2026-05-04 18:47 | 40.95636 | -74.03944 | 2999 ft | 171 kts | 218° |
| 2026-05-04 18:47 | 40.94616 | -74.04818 | 2996 ft | 182 kts | 211° |
| 2026-05-04 18:48 | 40.93441 | -74.05470 | 2958 ft | 180 kts | 202° |
| 2026-05-04 18:48 | 40.92237 | -74.05929 | 2961 ft | 178 kts | 198° |
| 2026-05-04 18:48 | 40.91002 | -74.06270 | 2978 ft | 181 kts | 194° |
| 2026-05-04 18:48 | 40.89758 | -74.06516 | 2975 ft | 182 kts | 192° |
| 2026-05-04 18:49 | 40.88487 | -74.06717 | 2973 ft | 182 kts | 191° |
| 2026-05-04 18:49 | 40.87218 | -74.06879 | 2976 ft | 183 kts | 190° |
| 2026-05-04 18:49 | 40.85968 | -74.07037 | 3012 ft | 179 kts | 193° |
| 2026-05-04 18:49 | 40.84779 | -74.07355 | 2905 ft | 163 kts | 200° |
| 2026-05-04 18:50 | 40.83768 | -74.07743 | 3042 ft | 147 kts | 204° |
| 2026-05-04 18:50 | 40.82719 | -74.08231 | 2985 ft | 165 kts | 205° |
| 2026-05-04 18:50 | 40.81653 | -74.08784 | 2708 ft | 160 kts | 207° |
| 2026-05-04 18:50 | 40.80678 | -74.09327 | 2423 ft | 143 kts | 208° |
| 2026-05-04 18:51 | 40.79813 | -74.09834 | 2171 ft | 133 kts | 210° |
| 2026-05-04 18:51 | 40.78970 | -74.10343 | 1992 ft | 133 kts | 210° |
| 2026-05-04 18:51 | 40.78100 | -74.10886 | 1862 ft | 146 kts | 210° |
| 2026-05-04 18:51 | 40.77149 | -74.11484 | 1683 ft | 154 kts | 208° |
| 2026-05-04 18:52 | 40.76204 | -74.12068 | 1425 ft | 144 kts | 208° |
| 2026-05-04 18:52 | 40.75320 | -74.12605 | 1198 ft | 136 kts | 208° |
| 2026-05-04 18:52 | 40.74462 | -74.13124 | 1017 ft | 138 kts | 209° |
| 2026-05-04 18:52 | 40.73595 | -74.13679 | 804 ft | 133 kts | 210° |
| 2026-05-04 18:53 | 40.72759 | -74.14221 | 648 ft | 137 kts | 210° |
| 2026-05-04 18:53 | 40.71921 | -74.14756 | 460 ft | 135 kts | 209° |
| 2026-05-04 18:53 | 40.71063 | -74.15316 | 322 ft | 137 kts | 210° |
| 2026-05-04 18:53 | 40.70215 | -74.15848 | 139 ft | 137 kts | 211° |
| 2026-05-04 18:54 | 40.69382 | -74.16389 | 23 ft | 130 kts | 211° |
| 2026-05-04 18:54 | 40.68737 | -74.16808 | 21 ft | 65 kts | 206° |
| 2026-05-04 18:54 | 40.68487 | -74.16966 | 21 ft | 33 kts | 208° |
| 2026-05-04 18:54 | 40.68322 | -74.17110 | 21 ft | 26 kts | 222° |
| 2026-05-04 18:55 | 40.68211 | -74.17285 | 21 ft | 23 kts | 236° |
| 2026-05-04 18:55 | 40.68186 | -74.17551 | 21 ft | 14 kts | 296° |
| 2026-05-04 18:55 | 40.68231 | -74.17662 | 21 ft | 13 kts | 311° |
| 2026-05-04 18:56 | 40.68318 | -74.17726 | 21 ft | 10 kts | 3° |
| 2026-05-04 18:56 | 40.68388 | -74.17688 | 21 ft | 10 kts | 27° |
| 2026-05-04 18:56 | 40.68461 | -74.17640 | 21 ft | 14 kts | 24° |
| 2026-05-04 18:56 | 40.68559 | -74.17581 | 21 ft | 15 kts | 26° |
| 2026-05-04 18:57 | 40.68613 | -74.17602 | 21 ft | 10 kts | 306° |
| 2026-05-04 18:57 | 40.68637 | -74.17726 | 21 ft | 11 kts | 227° |
| 2026-05-04 18:57 | 40.68564 | -74.17777 | 21 ft | 12 kts | 206° |
| 2026-05-04 18:57 | 40.68487 | -74.17866 | 21 ft | 17 kts | 241° |
| 2026-05-04 18:58 | 40.68472 | -74.18012 | 21 ft | 16 kts | 294° |
| 2026-05-04 18:58 | 40.68481 | -74.18117 | 21 ft | 9 kts | 225° |
| 2026-05-04 18:58 | 40.68441 | -74.18175 | 21 ft | 7 kts | 229° |
| 2026-05-04 18:58 | 40.68421 | -74.18205 | 21 ft | 0 kts | 229° |
| 2026-05-04 18:59 | 40.68420 | -74.18207 | 21 ft | 2 kts | 229° |
| 2026-05-04 18:59 | 40.68414 | -74.18215 | 21 ft | 0 kts | 229° |